Katmai National Park, AK

5:29 AM AKDT on September 20, 2014 (GMT -0800)
King Salmon | Change Station
CLOSE
Current Station
Airport
Location: King Salmon,
Elevation: 46 ft
Nearby Weather Stations

Elev 46 ft 58.68 °N, 156.66 °W | Updated 35 minutes ago

Overcast
Overcast
48 °F
Feels Like 48 °F
N
4
Wind Variable Wind from North

Today
High -- | Low -- °F
--% Chance of Precip.
Yesterday
High -- | Low -- °F
Precip. -- in
8:07 AM 8:31 PM
Waning Crescent, 12% visible
Pressure 29.49 in
Visibility 10.0 miles
Clouds Overcast 5500 ft
Dew Point 47 °F
Humidity 96%
Rainfall 0.04 in
Snow Depth 0 in , 0 in , 1 in
UV 0 out of 12
Pollen Not available.
Air Quality Not available.
Flu Activity Not available.
METAR PAKN 201254Z 36003KT 10SM OVC055 09/08 A2949 RMK AO2 SLP986 T00890083

More Conditions Fewer Conditions

Pressure 29.49 in
Visibility 10.0 miles
Clouds Overcast 5500 ft
Dew Point 47 °F
Humidity 96%
Rainfall 0.04 in
Snow Depth 0 in , 0 in , 1 in
UV 0 out of 12
Pollen Not available.
Air Quality Not available.
Flu Activity Not available.
METAR PAKN 201254Z 36003KT 10SM OVC055 09/08 A2949 RMK AO2 SLP986 T00890083

More Conditions Fewer Conditions

10-Day Weather Forecast

Almanac

Astronomy

Sep. 20, 2014 Rise Set
Actual Time 8:07 AM AKDT 8:31 PM AKDT
Civil Twilight 7:27 AM AKDT 9:11 PM AKDT
Nautical Twilight 6:38 AM AKDT 9:59 PM AKDT
Astronomical Twilight 5:45 AM AKDT 10:51 PM AKDT
Moon 4:21 AM AKDT 7:08 PM AKDT
Length of Visible Light 13h 44m
Length of Day
12h 23m
Tomorrow will be 5m 7s shorter.
Waning Crescent, 12% of the Moon is Illuminated
Today
Waning Crescent
Sep 24
New
Oct 1
First Quarter
Oct 8
Full
Oct 15
Last Quarter

Today's Extremes

State Highs State Lows

Community

WunderPhotos

Upload Photos

1,754,857 photos uploaded!

Nearby

Snow Depth

Station Depth Elevation
Long Lake 0 in 820 ft
Grandview 0 in 1100 ft
Indian Pass 1 in 2300 ft
Upper Chena 1 in 2850 ft
Atigun Pass 2 in 4800 ft

Earthquake Activity

City Distance Mag. Time & Date
No recent earthquake activity has been reported nearby.
Minimum magnitude displayed is 2.5.

Coastal Water Temperatures

Place Temperature
No Stations Reporting

Nearby Weather Stations